Terminal Aerodrome Forecast
Issued by NWS

Home | Current Version | Previous Version | Text Only | Print | Product List | Glossary Off
Versions: 1 2 3 4 5 6 7 8 9 10 11 12 13 14 15 16 17 18 19 20

000
FTUS42 KMHX 081100 AAB
TAFISO
TAF AMD
KISO 081102Z 0811/0906 22011KT P6SM FEW250
      TEMPO 0811/0812 6SM BR BKN011
     FM081300 21013G20KT P6SM SCT045
      AMD LTD TO CLD VIS AND WIND=

USA.gov is the U.S. government's official web portal to all federal, state and local government web resources and services.